Tucson, AZ (85701)

10:06 PM MST on July 29, 2016 (GMT -0700)
UA WRRC WEATHER | | Change Station

Elev 2431 ft 32.23 °N, 110.94 °W | Updated 4 minutes ago

Clear
Clear
74.5 °F
Feels Like 74 °F
N
2.0
Wind Variable Wind from North
Gusts 7.0 mph

Today
High -- | Low -- °F
--% Chance of Precip.
Yesterday
High -- | Low -- °F
Precip. -- in
Pressure 29.86 in
Visibility 10.0 miles
Clouds Clear
Heat Index 74 °F
Dew Point 69 °F
Humidity 84%
Rainfall 0.00 in
Snow Depth Not available.
5:37 AM 7:23 PM
Waning Crescent, 16% visible
METAR KDMA 300458Z AUTO 07004KT 10SM CLR 25/20 A2999 RMK AO2 RAE16DZB16E26RAB26E49DZB49 SLP109 P0000 T02450198 $
Pressure 29.86 in
Visibility 10.0 miles
Clouds Clear
Heat Index 74 °F
Dew Point 69 °F
Humidity 84%
Rainfall 0.00 in
Snow Depth Not available.
5:37 AM 7:23 PM
Waning Crescent, 16% visible
METAR KDMA 300458Z AUTO 07004KT 10SM CLR 25/20 A2999 RMK AO2 RAE16DZB16E26RAB26E49DZB49 SLP109 P0000 T02450198 $

10-Day Weather Forecast

Almanac

Astronomy

Jul. 29, 2016 Rise Set
Actual Time
Civil Twilight
Nautical Twilight
Astronomical Twilight
Moon
Length of Visible Light
Length of Day
Tomorrow will be .
, % of the Moon is Illuminated

Today's Extremes

State Highs State Lows

Community

WunderPhotos

Upload Photos

1,928,506 photos uploaded!

WunderBlog® & News

Nearby

Air Quality

  Air Quality AQ Index Pollutant
Not available.

Snow Depth

Station Depth Elevation

Earthquake Activity

City Distance Mag. Time & Date
Minimum magnitude displayed is 2.5.

Coastal Water Temperatures

Place Temperature

Stations

Nearby Weather Stations

Station Location Temp. Windchill Dew Point Humidity Wind Precip. Elev Updated Type
                   

Watches & Warnings

Severe Thunderstorm Watch
Issued: 10:03 PM MDT Jul. 29, 2016 – National Weather Service

Severe Thunderstorm Watch 424 remains in effect until 1100 PM MST
for the following locations


AZ
. Arizona counties included are

Maricopa Pima Pinal